Mexican Cut, RMBL, Colorado Weather observations

Data are for 10 minute period ending at time listed.
 Day   Time   Solar   Ave.   Ave.  Ave.  Vector  Max.   Baro.   Total    
  of    of     Rad.   Air    Rel.  Wind   Wind   Wind  Press.  Precip.   
Year   Day            Temp.  Hum.  Speed  Dir.   Gust                    
2014   (MST)  Kw/m2    F      %     mph   deg.    mph    mb.     in.     
-------------------------------------------------------------------------
 105   21:30   0.00   28.7    38    6.2   229    17.0   668.6    0.00 
 105   21:40   0.00   28.7    37    7.3   195    20.8   668.5    0.00 
 105   21:50   0.00   28.5    37    6.9   185    22.3   668.4    0.00 
 105   22:00   0.00   28.5    34    6.5   191    19.1   668.4    0.00 
 105   22:10   0.00   28.3    34    5.7   204    19.9   668.3    0.00 
 105   22:20   0.00   28.2    34    6.8   206    22.2   668.3    0.00 
 105   22:30   0.00   28.3    33    5.8   211    14.7   668.2    0.00 
 105   22:40   0.00   28.4    33    5.2   209    15.1   668.0    0.00 
 105   22:50   0.00   28.6    33    7.5   175    19.0   667.9    0.00 
 105   23:00   0.00   28.8    32    6.0   192    16.5   667.9    0.00 
 105   23:10   0.00   29.0    32    7.6   193    17.7   667.8    0.00 
 105   23:20   0.00   29.0    32    5.4   207    17.0   667.8    0.00 
 105   23:30   0.00   29.0    32    4.4   217    13.7   667.8    0.00 
 105   23:40   0.00   29.0    32    4.1   193    16.4   667.7    0.00 
 105   23:50   0.00   29.2    31    6.9   198    18.9   667.7    0.00 
 106    0:00   0.00   29.0    31    6.5   203    17.2   667.7    0.00 
 106    0:10   0.00   29.4    30    7.1   179    21.5   667.4    0.00 
 106    0:20   0.00   29.4    30    5.2   216    14.4   667.5    0.00 
 106    0:30   0.00   29.7    30    5.0   266    14.8   667.4    0.00 
 106    0:40   0.00   29.7    30    6.3   282    19.6   667.4    0.00 
 106    0:50   0.00   29.8    30    9.2   303    22.1   667.3    0.00 
 106    1:00   0.00   29.8    31    9.6   260    25.1   667.3    0.00 
 106    1:10   0.00   29.8    33    6.9   267    24.8   667.2    0.00 
 106    1:20   0.00   29.7    33    3.7   291    14.5   667.2    0.00 
 106    1:30   0.00   29.6    33    7.5   297    22.0   667.1    0.00 
 106    1:40   0.00   29.5    34    4.6   293    12.8   667.1    0.00 
 106    1:50   0.00   29.5    34    7.5   280    19.9   667.0    0.00 
 106    2:00   0.00   29.7    34    9.9   274    26.9   666.8    0.00 
 106    2:10   0.00   29.7    34    6.5   267    18.6   666.7    0.00 
 106    2:20   0.00   29.6    34    6.4   250    15.0   666.8    0.00 
 106    2:30   0.00   29.5    34    2.7   268     9.3   666.8    0.00 
 106    2:40   0.00   29.0    36    2.9   195     9.5   667.0    0.00 
 106    2:50   0.00   28.9    36    2.6   220    11.9   667.0    0.00 
 106    3:00   0.00   28.5    36    3.0   238     8.4   667.0    0.00 
 106    3:10   0.00   28.0    37    3.7   231    11.3   666.8    0.00 
 106    3:20   0.00   27.7    37    4.8   278    14.0   666.9    0.00 
 106    3:30   0.00   27.4    38    3.1   300     9.0   666.8    0.00 
 106    3:40   0.00   27.2    39    2.9   321     8.7   666.8    0.00 
 106    3:50   0.00   26.8    40    5.4   320    13.7   666.8    0.00 
 106    4:00   0.00   26.3    41    4.8   336    11.2   666.8    0.00 
 106    4:10   0.00   26.1    42    4.5   326    13.4   666.8    0.00 
 106    4:20   0.00   25.8    43    1.3   227     6.4   666.9    0.00 
 106    4:30   0.00   25.5    44    2.8   309     6.1   667.0    0.00 
 106    4:40   0.00   25.3    45    3.0   338     7.9   667.0    0.00 
 106    4:50   0.00   25.1    46    2.1   316     5.5   667.2    0.00 
 106    5:00   0.00   24.9    46    1.6   261     5.3   667.2    0.00 
 106    5:10   0.00   25.0    46    2.3   285     7.4   667.1    0.00 
 106    5:20   0.00   24.8    46    2.1   258     6.2   667.3    0.00 
 106    5:30   0.00   24.6    48    2.1   259     7.2   667.4    0.00 
 106    5:40   0.00   24.5    50    3.8   282     9.1   667.5    0.00 
 106    5:50   0.01   24.4    52    4.7   283    12.6   667.5    0.00 
 106    6:00   0.02   24.4    53    4.4   299    11.0   667.6    0.00 
 106    6:10   0.03   24.4    54    3.5   282     7.0   667.5    0.00 
 106    6:20   0.04   24.4    54    3.5   297     9.2   667.6    0.00 
 106    6:30   0.05   24.2    55    5.2   303    14.1   667.7    0.00 
 106    6:40   0.07   24.1    56    3.1   289     8.6   667.7    0.00 
 106    6:50   0.10   24.1    57    2.7   295     8.0   667.7    0.00 
 106    7:00   0.12   24.0    56    4.2   288     9.6   667.8    0.00 
 106    7:10   0.14   23.8    59    2.5   300     6.9   667.8    0.00 
 106    7:20   0.17   24.6    57    1.4   311     5.3   667.9    0.00 
 106    7:30   0.20   25.0    57    1.6   275     4.9   668.0    0.00 
 106    7:40   0.22   25.4    55    1.5   297     5.5   668.0    0.00 
 106    7:50   0.25   25.5    56    2.1     5     7.7   668.0    0.00 
 106    8:00   0.33   27.2    50    2.1   204     4.4   668.0    0.00 
 106    8:10   0.40   28.3    49    1.6   265     5.6   667.9    0.00 
 106    8:20   0.54   28.2    49    4.1   343    10.9   668.0    0.00 
 106    8:30   0.50   27.4    47    5.5   336    15.0   668.0    0.00 
 106    8:40   0.52   27.9    42    3.9   324    11.7   668.1    0.00 
 106    8:50   0.50   27.5    37    5.9   351    16.3   668.2    0.00 
 106    9:00   0.55   27.0    34    5.6   351    14.6   668.3    0.00 
 106    9:10   0.69   28.0    33    5.2   330    14.0   668.2    0.00 
 106    9:20   0.78   29.8    32    4.6   193    12.6   668.3    0.00 
 106    9:30   0.85   30.9    30    6.1   342    16.2   668.3    0.00 
 106    9:40   0.74   29.1    34    4.4   312    13.4   668.4    0.00 
 106    9:50   0.77   30.2    33    3.9   341    10.5   668.5    0.00 
 106   10:00   0.72   31.5    32    3.0   232     8.0   668.6    0.00 
 106   10:10   0.70   31.7    32    3.9   314    13.7   668.5    0.00 
 106   10:20   0.77   30.0    34    4.5   332     9.9   668.7    0.00 
 106   10:30   0.87   31.5    32    2.8   276     8.8   668.7    0.00 
 106   10:40   0.83   31.6    32    4.1   319    10.2   668.7    0.00 
 106   10:50   0.77   31.1    33    3.8   342     9.1   668.7    0.00 
 106   11:00   0.78   32.4    31    3.1   210     7.0   668.7    0.00 
 106   11:10   0.77   31.9    32    3.9   292    10.0   668.6    0.00 
 106   11:20   0.83   32.2    32    5.0   133    13.4   668.6    0.00 
 106   11:30   0.82   34.3    30    3.0   188    10.2   668.7    0.00 
 106   11:40   0.83   33.8    30    3.4   149    10.1   668.6    0.00 
 106   11:50   0.94   34.8    30    3.7   170    11.1   668.6    0.00 
 106   12:00   0.96   33.0    32    3.7   330     9.8   668.6    0.00 
 106   12:10   0.88   31.0    35    5.2   299    10.8   668.5    0.00 
 106   12:20   0.89   30.8    35    4.3   315    10.6   668.6    0.00 
 106   12:30   0.96   32.3    33    3.5   276     9.6   668.6    0.00 
 106   12:40   1.05   31.8    34    4.6   296     9.6   668.6    0.00 
 106   12:50   1.10   32.4    34    4.0   332    11.3   668.6    0.00 
 106   13:00   0.94   33.7    33    3.9   243     7.9   668.6    0.00 
 106   13:10   0.78   33.8    34    2.8   146    10.5   668.5    0.00 
 106   13:20   0.89   34.8    32    3.3   230     8.5   668.6    0.00 
 106   13:30   0.92   34.3    34    2.7   195     9.7   668.6    0.00 
 106   13:40   0.99   35.2    31    3.9   203    10.7   668.6    0.00 
 106   13:50   0.85   35.8    30    5.4   209    12.6   668.5    0.00 
 106   14:00   0.77   32.4    34    5.2   242    15.6   668.5    0.00 
 106   14:10   0.67   31.7    36    5.2   164    17.5   668.3    0.00 
 106   14:20   0.69   33.6    34    3.4   186    10.6   668.5    0.00 
 106   14:30   0.61   34.0    34    2.8   209     9.1   668.4    0.00 
 106   14:40   0.64   33.6    36    3.1   232    10.7   668.4    0.00 
 106   14:50   0.56   32.9    38    3.4   257     8.3   668.3    0.00 
 106   15:00   0.53   33.3    38    1.6   248     4.9   668.3    0.00 
 106   15:10   0.48   33.3    39    4.0   182     9.2   668.2    0.00 
 106   15:20   0.49   32.8    41    4.2   182    10.7   668.3    0.00 
 106   15:30   0.50   32.6    43    3.6   169    11.2   668.3    0.00 
 106   15:40   0.34   31.3    48    4.9   185    10.2   668.4    0.00 
 106   15:50   0.29   29.6    54    4.4   201    11.5   668.6    0.00 
 106   16:00   0.28   28.9    56    3.2   217     8.9   668.6    0.00 
 106   16:10   0.23   29.2    57    3.9   185     8.5   668.5    0.00 
 106   16:20   0.22   28.3    62    1.9   212     4.5   668.7    0.00 
 106   16:30   0.22   28.2    62    1.7   228     5.3   668.8    0.00 
 106   16:40   0.20   27.9    62    2.8   291     9.3   668.9    0.00 
 106   16:50   0.17   26.7    63    3.2   280    10.4   669.0    0.00 
 106   17:00   0.16   26.3    61    3.6   288    10.1   669.0    0.00 
 106   17:10   0.15   26.0    59    5.0   289    12.9   668.9    0.00 
 106   17:20   0.12   25.6    61    4.7   278    11.5   669.1    0.00 
 106   17:30   0.11   25.7    60    2.6   291     7.2   669.0    0.00 
 106   17:40   0.10   25.9    59    2.6   249     6.6   669.1    0.00 
 106   17:50   0.09   25.3    63    2.6   302     6.1   669.2    0.00 
 106   18:00   0.06   25.3    65    1.9   254     7.3   669.2    0.00 
 106   18:10   0.05   24.8    70    2.8   340     6.6   669.1    0.00 
 106   18:20   0.04   24.3    73    2.7   343     6.1   669.2    0.00 
 106   18:30   0.03   24.3    74    1.0   299     3.8   669.3    0.00 
 106   18:40   0.02   24.1    75    1.4   334     3.4   669.3    0.00 
 106   18:50   0.01   23.8    75    0.8   301     3.2   669.4    0.00 
 106   19:00   0.00   23.8    75    0.4   280     2.8   669.5    0.00 
 106   19:10   0.00   23.6    74    0.2   269     1.3   669.4    0.00 
 106   19:20   0.00   23.1    75    0.3   346     2.0   669.5    0.00 
 106   19:30   0.00   22.7    75    0.6   293     1.8   669.6    0.00 
 106   19:40   0.00   22.2    74    0.5   354     2.1   669.7    0.00 
 106   19:50   0.00   21.3    76    0.6   214     1.2   669.9    0.00 
 106   20:00   0.00   20.2    76    1.2   208     1.9   670.0    0.00 
 106   20:10   0.00   19.4    79    0.8   216     1.7   670.0    0.00 
 106   20:20   0.00   19.5    81    0.8   241     2.9   670.1    0.00 
 106   20:30   0.00   20.6    77    1.8   277     3.8   670.1    0.00 
 106   20:40   0.00   21.7    72    0.5    79     1.9   670.2    0.00 
 106   20:50   0.00   20.6    74    1.1   185     2.8   670.2    0.00 
 106   21:00   0.00   19.8    75    0.5   154     2.0   670.2    0.00 
 106   21:10   0.00   19.1    78    0.9   206     2.7   670.2    0.00 
 106   21:20   0.00   18.8    80    0.8   200     2.1   670.3    0.00 

Return to Mexican Cut, RMBL, Colorado graphs page.


Western Regional Climate Center,wrcc@dri.edu